GEC284 EDDF-HKJK
Flight info
| Callsign | GEC284 |
|---|---|
| Flight time | N/A |
| Altitude | 33000 |
| Route | CINDY2D CINDY Z74 LAMPU DCT NOMBO Y161 MAH DCT VAVOR DCT RADIZ DCT NIPEL DCT ELTIB DCT GLOMY DCT PETAK DCT DIMIS DCT IPTES UL604 TRL DCT SALUN N705 BOPIX N710 TAKRI P751 LXR M999 SEDVA/N0491F350 M999 JDW G650 RASKA/N0497F340 G650 KONET M308 UMTOK/N0489F360 M308 GETOL UM308 RUDOL/N0493F350 UM308 LOTAS LOTAS4D |
| Aircraft | B77L/H-SDE1E2E3FGHIJ2J3J4J5M1RWXY/LB1D1 |
Departure
| Time | 2026-05-05 07:40 |
|---|---|
| Airport | Frankfurt Main Airport (EDDF) |
Arrival
| Time | N/A |
|---|---|
| Airport | Jomo Kenyatta International Airport (HKJK) |
| Time | Latitude | Longitude | Altitude | Speed | Heading |
|---|---|---|---|---|---|
| 2026-05-05 07:12 | 50.04002 | 8.54539 | 353 ft | 0 kts | 249° |
| 2026-05-05 07:32 | 50.04007 | 8.54560 | 363 ft | 4 kts | 244° |
| 2026-05-05 07:32 | 50.04020 | 8.54596 | 363 ft | 4 kts | 230° |
| 2026-05-05 07:33 | 50.04040 | 8.54624 | 363 ft | 4 kts | 208° |
| 2026-05-05 07:33 | 50.04064 | 8.54635 | 361 ft | 4 kts | 172° |
| 2026-05-05 07:33 | 50.04074 | 8.54632 | 362 ft | 1 kts | 160° |
| 2026-05-05 07:36 | 50.04056 | 8.54643 | 363 ft | 8 kts | 160° |
| 2026-05-05 07:36 | 50.03963 | 8.54675 | 360 ft | 19 kts | 195° |
| 2026-05-05 07:36 | 50.03888 | 8.54466 | 358 ft | 25 kts | 250° |
| 2026-05-05 07:37 | 50.03823 | 8.54287 | 358 ft | 19 kts | 236° |
| 2026-05-05 07:37 | 50.03759 | 8.54058 | 356 ft | 18 kts | 249° |
| 2026-05-05 07:37 | 50.03704 | 8.53822 | 352 ft | 28 kts | 250° |
| 2026-05-05 07:37 | 50.03624 | 8.53495 | 350 ft | 34 kts | 248° |
| 2026-05-05 07:38 | 50.03562 | 8.53239 | 349 ft | 21 kts | 250° |
| 2026-05-05 07:38 | 50.03510 | 8.53027 | 351 ft | 21 kts | 249° |
| 2026-05-05 07:38 | 50.03457 | 8.52814 | 337 ft | 21 kts | 248° |
| 2026-05-05 07:38 | 50.03387 | 8.52618 | 336 ft | 21 kts | 214° |
| 2026-05-05 07:39 | 50.03215 | 8.52596 | 340 ft | 36 kts | 179° |
| 2026-05-05 07:39 | 50.02721 | 8.52601 | 336 ft | 108 kts | 179° |
| 2026-05-05 07:39 | 50.01755 | 8.52610 | 336 ft | 172 kts | 180° |
| 2026-05-05 07:39 | 50.00411 | 8.52599 | 501 ft | 205 kts | 181° |
| 2026-05-05 07:40 | 49.98925 | 8.52550 | 919 ft | 221 kts | 181° |
| 2026-05-05 07:40 | 49.97379 | 8.52520 | 1624 ft | 224 kts | 173° |
| 2026-05-05 07:40 | 49.95962 | 8.53472 | 2128 ft | 227 kts | 131° |
| 2026-05-05 07:40 | 49.95201 | 8.55582 | 2683 ft | 225 kts | 111° |
| 2026-05-05 07:41 | 49.94556 | 8.57829 | 3156 ft | 230 kts | 117° |
| 2026-05-05 07:41 | 49.93941 | 8.60124 | 3670 ft | 233 kts | 99° |
| 2026-05-05 07:41 | 49.93874 | 8.62695 | 3848 ft | 251 kts | 90° |
| 2026-05-05 07:41 | 49.93836 | 8.65487 | 4292 ft | 262 kts | 94° |
| 2026-05-05 07:42 | 49.93678 | 8.68338 | 4844 ft | 266 kts | 107° |
| 2026-05-05 07:42 | 49.92739 | 8.70777 | 5336 ft | 266 kts | 142° |
| 2026-05-05 07:42 | 49.91232 | 8.72394 | 5980 ft | 264 kts | 147° |
| 2026-05-05 07:42 | 49.89757 | 8.74092 | 6595 ft | 269 kts | 145° |
| 2026-05-05 07:43 | 49.88287 | 8.75876 | 7166 ft | 270 kts | 135° |
| 2026-05-05 07:43 | 49.87265 | 8.78367 | 7620 ft | 278 kts | 118° |
| 2026-05-05 07:43 | 49.86388 | 8.81076 | 8200 ft | 282 kts | 120° |
| 2026-05-05 07:43 | 49.85446 | 8.83759 | 8877 ft | 284 kts | 121° |
| 2026-05-05 07:44 | 49.84474 | 8.86453 | 9532 ft | 288 kts | 121° |
| 2026-05-05 07:44 | 49.83486 | 8.89176 | 10117 ft | 293 kts | 121° |
| 2026-05-05 07:44 | 49.82456 | 8.92004 | 10353 ft | 312 kts | 121° |
| 2026-05-05 07:44 | 49.81356 | 8.95024 | 10538 ft | 333 kts | 121° |
| 2026-05-05 07:45 | 49.80180 | 8.98258 | 10697 ft | 355 kts | 121° |
| 2026-05-05 07:45 | 49.78936 | 9.01678 | 11016 ft | 371 kts | 121° |
| 2026-05-05 07:45 | 49.77668 | 9.05156 | 11564 ft | 381 kts | 121° |
| 2026-05-05 07:45 | 49.76354 | 9.08798 | 12318 ft | 382 kts | 119° |
| 2026-05-05 07:46 | 49.75421 | 9.12627 | 12853 ft | 392 kts | 106° |
| 2026-05-05 07:46 | 49.74787 | 9.16752 | 13532 ft | 396 kts | 106° |
| 2026-05-05 07:46 | 49.73839 | 9.20743 | 14131 ft | 395 kts | 123° |
| 2026-05-05 07:46 | 49.72102 | 9.24010 | 14760 ft | 393 kts | 137° |
| 2026-05-05 07:47 | 49.70150 | 9.26994 | 15478 ft | 396 kts | 136° |
| 2026-05-05 07:47 | 49.68256 | 9.30103 | 16195 ft | 399 kts | 134° |
| 2026-05-05 07:47 | 49.66403 | 9.33311 | 16887 ft | 402 kts | 134° |
| 2026-05-05 07:47 | 49.64547 | 9.36574 | 17559 ft | 405 kts | 134° |
| 2026-05-05 07:48 | 49.62609 | 9.39750 | 18199 ft | 407 kts | 140° |
| 2026-05-05 07:48 | 49.60430 | 9.42546 | 18751 ft | 409 kts | 146° |
| 2026-05-05 07:48 | 49.58049 | 9.44960 | 19273 ft | 411 kts | 151° |
| 2026-05-05 07:48 | 49.56402 | 9.46432 | 19608 ft | 413 kts | 152° |
| 2026-05-05 07:49 | 49.53909 | 9.48671 | 20165 ft | 417 kts | 152° |
| 2026-05-05 07:49 | 49.51391 | 9.50951 | 20690 ft | 421 kts | 152° |
| 2026-05-05 07:49 | 49.48027 | 9.54015 | 21348 ft | 427 kts | 152° |
| 2026-05-05 07:49 | 49.45461 | 9.56357 | 21852 ft | 431 kts | 152° |
| 2026-05-05 07:50 | 49.43712 | 9.57954 | 22190 ft | 434 kts | 152° |
| 2026-05-05 07:50 | 49.41139 | 9.60303 | 22703 ft | 438 kts | 152° |
| 2026-05-05 07:50 | 49.38510 | 9.62698 | 23201 ft | 442 kts | 152° |
| 2026-05-05 07:50 | 49.35863 | 9.65148 | 23642 ft | 446 kts | 149° |
| 2026-05-05 07:51 | 49.33335 | 9.67967 | 24085 ft | 451 kts | 143° |
| 2026-05-05 07:51 | 49.31004 | 9.71197 | 24624 ft | 453 kts | 137° |
| 2026-05-05 07:51 | 49.28790 | 9.74655 | 25107 ft | 455 kts | 137° |
| 2026-05-05 07:51 | 49.26553 | 9.78132 | 25524 ft | 459 kts | 137° |
| 2026-05-05 07:52 | 49.24301 | 9.81605 | 25907 ft | 463 kts | 138° |
| 2026-05-05 07:52 | 49.22008 | 9.85117 | 26260 ft | 467 kts | 138° |
| 2026-05-05 07:52 | 49.19733 | 9.88586 | 26686 ft | 469 kts | 138° |
| 2026-05-05 07:52 | 49.17415 | 9.92110 | 27132 ft | 471 kts | 138° |
| 2026-05-05 07:53 | 49.15087 | 9.95645 | 27534 ft | 473 kts | 138° |
| 2026-05-05 07:53 | 49.12743 | 9.99199 | 27941 ft | 476 kts | 138° |
| 2026-05-05 07:53 | 49.10385 | 10.02772 | 28330 ft | 479 kts | 138° |
| 2026-05-05 07:53 | 49.08015 | 10.06356 | 28697 ft | 481 kts | 138° |
| 2026-05-05 07:54 | 49.05624 | 10.09959 | 29090 ft | 483 kts | 139° |